Time;durP1;ratioP1;P1;durP2;ratioP2;P2;SDS_P1;SDS_P2;PMS_P1;PMS_P2;Temp;Humidity;BMP_temperature;BMP_pressure;BME280_temperature;BME280_humidity;BME280_pressure;Samples;Min_cycle;Max_cycle;Signal;HPM_P1;HPM_P2
2021/07/13 00:00:43;;;;;;;6.25;5.75;;;;;;;22.08;78.45;100285.69;5081593;28;20040;-82
2021/07/13 00:03:10;;;;;;;9.38;7.10;;;;;;;22.07;78.51;100275.97;5053679;28;20047;-85
2021/07/13 00:05:42;;;;;;;10.70;7.55;;;;;;;22.05;78.81;100269.88;5072563;28;20112;-85
2021/07/13 00:08:11;;;;;;;7.32;6.72;;;;;;;22.02;79.20;100265.59;5052636;28;20449;-85
2021/07/13 00:10:43;;;;;;;9.15;8.35;;;;;;;21.96;79.66;100260.66;5083009;28;20142;-84
2021/07/13 00:13:10;;;;;;;8.15;7.50;;;;;;;21.88;79.96;100257.63;5048524;28;20052;-85
2021/07/13 00:15:41;;;;;;;9.27;8.45;;;;;;;21.81;80.64;100251.81;5050095;28;20070;-84
2021/07/13 00:18:09;;;;;;;9.90;9.10;;;;;;;21.74;81.07;100264.66;5083132;28;20056;-84
2021/07/13 00:20:38;;;;;;;9.70;8.70;;;;;;;21.69;81.23;100265.91;5057508;28;20089;-85
2021/07/13 00:23:05;;;;;;;10.52;9.23;;;;;;;21.61;81.32;100258.38;5053966;28;20050;-85
2021/07/13 00:25:34;;;;;;;9.65;8.80;;;;;;;21.55;81.47;100258.75;5073341;28;20130;-85
2021/07/13 00:28:00;;;;;;;10.68;9.00;;;;;;;21.47;81.90;100256.53;5069108;28;20043;-85
2021/07/13 00:30:27;;;;;;;10.82;9.93;;;;;;;21.40;82.50;100250.72;5068261;28;20490;-85
2021/07/13 00:32:54;;;;;;;8.93;8.13;;;;;;;21.33;82.80;100244.06;5085924;28;20109;-85
2021/07/13 00:35:21;;;;;;;8.88;8.23;;;;;;;21.27;82.95;100257.75;5054611;28;20048;-85
2021/07/13 00:37:50;;;;;;;15.20;9.77;;;;;;;21.21;83.45;100260.75;5051347;28;20521;-85
2021/07/13 00:40:21;;;;;;;9.98;9.10;;;;;;;21.14;83.81;100252.28;5057683;28;20051;-85
2021/07/13 00:42:51;;;;;;;8.88;8.18;;;;;;;21.07;84.28;100257.13;5067751;28;20056;-85
2021/07/13 00:45:21;;;;;;;8.82;8.00;;;;;;;20.99;84.76;100256.72;5054515;28;20047;-84
2021/07/13 00:47:51;;;;;;;9.52;8.48;;;;;;;20.93;85.00;100254.44;5035757;28;20055;-85
2021/07/13 00:50:21;;;;;;;9.23;8.32;;;;;;;20.84;85.20;100255.81;5053762;28;20063;-84
2021/07/13 00:52:53;;;;;;;10.57;9.70;;;;;;;20.76;85.64;100248.28;5053743;28;20048;-85
2021/07/13 00:55:22;;;;;;;10.38;8.27;;;;;;;20.71;86.08;100250.34;5055326;28;20506;-84
2021/07/13 00:57:49;;;;;;;8.90;7.95;;;;;;;20.64;86.46;100251.63;5054203;28;20135;-84
2021/07/13 01:00:23;;;;;;;11.55;10.35;;;;;;;20.57;86.78;100248.47;5049510;28;20504;-87
2021/07/13 01:03:03;;;;;;;10.27;9.32;;;;;;;20.50;87.48;100245.28;5070335;28;20051;-86
2021/07/13 01:05:34;;;;;;;10.65;9.60;;;;;;;20.44;87.60;100247.44;5051492;28;20066;-85
2021/07/13 01:08:55;;;;;;;9.07;8.38;;;;;;;20.38;88.82;100253.97;5068973;28;20507;-85
2021/07/13 01:11:47;;;;;;;10.27;9.48;;;;;;;20.33;88.54;100256.03;5067842;28;20049;-85
2021/07/13 01:14:28;;;;;;;10.35;9.45;;;;;;;20.28;88.89;100266.06;5068361;28;20044;-84
2021/07/13 01:17:03;;;;;;;10.82;9.88;;;;;;;20.21;89.18;100265.53;5049301;28;20040;-86
2021/07/13 01:19:33;;;;;;;10.20;9.27;;;;;;;20.16;89.68;100271.09;5071162;28;20044;-84
2021/07/13 01:22:06;;;;;;;11.48;10.32;;;;;;;20.13;90.15;100268.63;5068040;28;20047;-83
2021/07/13 01:24:55;;;;;;;11.47;10.37;;;;;;;20.10;91.13;100267.94;5047950;28;20036;-84
2021/07/13 01:27:42;;;;;;;11.45;10.45;;;;;;;20.04;91.26;100277.09;5066179;28;20168;-85
2021/07/13 01:30:22;;;;;;;10.23;9.20;;;;;;;19.98;91.81;100275.63;5055657;28;20135;-85
2021/07/13 01:32:56;;;;;;;11.35;10.15;;;;;;;19.92;92.30;100272.44;5086152;28;20048;-84
2021/07/13 01:35:35;;;;;;;11.52;10.55;;;;;;;19.83;92.81;100264.03;5072827;28;20048;-83
2021/07/13 01:38:09;;;;;;;11.13;10.10;;;;;;;19.81;93.51;100278.31;5074142;28;20032;-84
2021/07/13 01:40:38;;;;;;;10.73;9.68;;;;;;;19.76;93.70;100272.38;5059349;28;20086;-85
2021/07/13 01:43:07;;;;;;;11.27;10.23;;;;;;;19.72;94.12;100269.03;5087829;28;20499;-84
2021/07/13 01:45:33;;;;;;;11.48;10.48;;;;;;;19.70;94.26;100264.72;5065663;28;20047;-83
2021/07/13 01:48:04;;;;;;;10.52;9.63;;;;;;;19.65;94.52;100267.66;5052404;28;20072;-85
2021/07/13 01:50:33;;;;;;;14.95;10.73;;;;;;;19.62;94.87;100260.72;5071221;28;20040;-85
2021/07/13 01:53:02;;;;;;;12.32;11.05;;;;;;;19.61;95.66;100263.44;5057597;28;20455;-85
2021/07/13 01:55:33;;;;;;;12.52;10.60;;;;;;;19.55;95.47;100259.31;5073277;28;20040;-85
2021/07/13 01:58:02;;;;;;;11.07;10.07;;;;;;;19.51;95.92;100258.59;5055414;28;20048;-85
2021/07/13 02:00:29;;;;;;;12.65;11.43;;;;;;;19.47;96.37;100262.34;5083994;28;20048;-85
2021/07/13 02:03:01;;;;;;;12.65;11.43;;;;;;;19.45;96.53;100255.41;5052542;28;20402;-85
2021/07/13 02:05:32;;;;;;;13.85;11.05;;;;;;;19.43;96.77;100255.50;5069505;28;20722;-86
2021/07/13 02:08:04;;;;;;;11.98;10.80;;;;;;;19.40;96.53;100249.47;5092221;28;20039;-85
2021/07/13 02:10:32;;;;;;;13.25;12.05;;;;;;;19.37;96.39;100247.84;5072134;28;20051;-86
2021/07/13 02:13:00;;;;;;;10.90;10.00;;;;;;;19.32;96.28;100250.75;5069540;28;20072;-86
2021/07/13 02:15:31;;;;;;;14.13;11.68;;;;;;;19.29;96.81;100250.06;5070841;28;20044;-86
2021/07/13 02:17:58;;;;;;;14.45;12.73;;;;;;;19.25;97.05;100244.03;5054259;28;20044;-86
2021/07/13 02:20:24;;;;;;;12.95;11.75;;;;;;;19.22;97.32;100240.72;5085964;28;20048;-84
2021/07/13 02:22:52;;;;;;;11.73;10.82;;;;;;;19.17;97.73;100239.13;5050040;28;20044;-83
2021/07/13 02:25:18;;;;;;;12.15;10.98;;;;;;;19.15;97.66;100237.50;5073755;28;20740;-84
2021/07/13 02:28:05;;;;;;;12.85;11.57;;;;;;;19.11;97.64;100231.50;5073753;28;20066;-84
2021/07/13 02:30:35;;;;;;;17.10;13.45;;;;;;;19.08;97.96;100226.34;5073955;28;20091;-84
2021/07/13 02:33:06;;;;;;;12.18;10.65;;;;;;;19.06;98.02;100227.34;5073520;28;20039;-85
2021/07/13 02:35:43;;;;;;;13.93;12.55;;;;;;;19.04;98.26;100230.09;5052740;28;20047;-84
2021/07/13 02:38:11;;;;;;;12.45;11.18;;;;;;;18.99;98.29;100235.66;5071649;28;20060;-83
2021/07/13 02:40:40;;;;;;;12.68;11.55;;;;;;;18.97;98.64;100231.34;5057795;28;20075;-84
2021/07/13 02:43:12;;;;;;;13.65;12.25;;;;;;;18.94;98.98;100223.53;5055516;28;20402;-85
2021/07/13 02:45:39;;;;;;;14.18;12.77;;;;;;;18.92;98.83;100218.31;5056197;28;20871;-85
2021/07/13 02:48:07;;;;;;;16.67;14.93;;;;;;;18.89;99.00;100222.88;5052587;28;20406;-84
2021/07/13 02:50:34;;;;;;;15.45;14.05;;;;;;;18.87;99.37;100227.41;5053602;28;20044;-84
2021/07/13 02:53:03;;;;;;;16.08;14.48;;;;;;;18.84;99.57;100223.13;5054594;28;20058;-83
2021/07/13 02:55:32;;;;;;;16.90;15.32;;;;;;;18.81;99.47;100212.66;5056925;28;20070;-84
2021/07/13 02:58:01;;;;;;;14.68;13.38;;;;;;;18.76;99.33;100206.72;5069347;28;21117;-83
2021/07/13 03:00:33;;;;;;;15.93;13.15;;;;;;;18.74;99.57;100205.97;5070881;28;20071;-84
2021/07/13 03:03:01;;;;;;;14.18;12.98;;;;;;;18.72;99.53;100211.34;5057605;28;20146;-86
2021/07/13 03:05:29;;;;;;;16.65;14.32;;;;;;;18.71;99.78;100217.56;5057773;28;20047;-85
2021/07/13 03:07:56;;;;;;;14.48;12.85;;;;;;;18.70;99.57;100220.31;5073439;28;20047;-86
2021/07/13 03:10:26;;;;;;;13.48;12.27;;;;;;;18.70;99.54;100218.50;5070148;28;20044;-84
2021/07/13 03:12:54;;;;;;;15.55;14.05;;;;;;;18.68;99.41;100223.00;5055604;28;20096;-84
2021/07/13 03:15:26;;;;;;;14.45;13.15;;;;;;;18.66;99.49;100222.25;5070308;28;20039;-84
2021/07/13 03:18:01;;;;;;;14.60;13.30;;;;;;;18.64;99.66;100224.09;5069625;28;20464;-83
2021/07/13 03:20:29;;;;;;;15.82;14.35;;;;;;;18.62;99.83;100224.19;5070073;28;20251;-84
2021/07/13 03:22:57;;;;;;;18.48;16.75;;;;;;;18.62;99.83;100229.47;5053544;28;20703;-83
2021/07/13 03:25:33;;;;;;;17.83;15.85;;;;;;;18.60;99.98;100223.38;5062333;28;20040;-83
2021/07/13 03:28:01;;;;;;;21.10;14.45;;;;;;;18.58;100.00;100227.09;5067203;28;20047;-83
2021/07/13 03:30:33;;;;;;;14.10;12.70;;;;;;;18.58;100.00;100224.44;5069983;28;20409;-83
2021/07/13 03:33:01;;;;;;;15.90;14.18;;;;;;;18.55;100.00;100216.59;5070015;28;20047;-83
2021/07/13 03:35:29;;;;;;;14.80;13.32;;;;;;;18.56;100.00;100218.34;5055943;28;20105;-83
2021/07/13 03:37:58;;;;;;;14.77;13.27;;;;;;;18.56;100.00;100219.19;5056253;28;20117;-83
2021/07/13 03:40:27;;;;;;;23.10;15.18;;;;;;;18.58;100.00;100219.13;5068888;28;20044;-82
2021/07/13 03:42:55;;;;;;;16.52;14.93;;;;;;;18.58;100.00;100217.31;5053966;28;20135;-85
2021/07/13 03:45:25;;;;;;;22.23;15.35;;;;;;;18.60;100.00;100214.59;5082708;28;20044;-85
2021/07/13 03:48:02;;;;;;;15.55;14.13;;;;;;;18.61;100.00;100216.31;5054751;28;20043;-83
2021/07/13 03:50:34;;;;;;;14.57;13.18;;;;;;;18.64;100.00;100221.44;5069771;28;20052;-85
2021/07/13 03:53:04;;;;;;;17.67;15.90;;;;;;;18.66;100.00;100222.25;5087557;27;20500;-84
2021/07/13 03:55:31;;;;;;;14.95;13.18;;;;;;;18.68;100.00;100233.63;5053458;28;20040;-86
2021/07/13 03:58:00;;;;;;;15.23;13.80;;;;;;;18.71;100.00;100220.22;5071373;28;20036;-83
2021/07/13 04:00:32;;;;;;;15.98;14.27;;;;;;;18.74;99.87;100224.53;5055406;28;20142;-85
2021/07/13 04:03:01;;;;;;;17.33;15.65;;;;;;;18.76;99.92;100217.31;5068672;28;20474;-83
2021/07/13 04:05:29;;;;;;;15.60;14.10;;;;;;;18.82;99.40;100224.97;5069440;28;20076;-85
2021/07/13 04:07:57;;;;;;;18.42;15.48;;;;;;;18.86;99.53;100218.59;5053695;28;20097;-85
2021/07/13 04:10:24;;;;;;;15.40;13.77;;;;;;;18.94;99.05;100223.53;5069707;28;20410;-83
2021/07/13 04:12:53;;;;;;;16.60;14.93;;;;;;;19.01;98.68;100225.78;5056937;28;20130;-85
2021/07/13 04:15:21;;;;;;;14.93;13.60;;;;;;;19.08;98.29;100225.50;5051142;28;20062;-83
2021/07/13 04:17:50;;;;;;;16.17;14.57;;;;;;;19.15;98.23;100221.56;5068782;28;20147;-84
2021/07/13 04:20:17;;;;;;;16.95;14.43;;;;;;;19.22;97.63;100225.63;5065059;28;20448;-84
2021/07/13 04:22:45;;;;;;;14.82;13.25;;;;;;;19.30;97.27;100228.75;5068466;28;20661;-85
2021/07/13 04:25:15;;;;;;;17.23;13.43;;;;;;;19.41;96.79;100229.97;5070694;28;20063;-84
2021/07/13 04:27:42;;;;;;;15.70;14.10;;;;;;;19.47;96.53;100235.81;5070716;28;20114;-84
2021/07/13 04:30:12;;;;;;;14.95;13.10;;;;;;;19.51;96.19;100229.41;5057116;28;20076;-83
2021/07/13 04:32:43;;;;;;;11.88;10.88;;;;;;;19.55;95.72;100235.41;5068437;28;20083;-84
2021/07/13 04:35:10;;;;;;;12.00;10.98;;;;;;;19.60;95.68;100237.84;5085429;28;20044;-84
2021/07/13 04:37:41;;;;;;;13.68;12.38;;;;;;;19.69;95.57;100231.19;5051735;28;20051;-84
2021/07/13 04:40:13;;;;;;;11.73;10.63;;;;;;;19.78;94.98;100234.19;5055353;28;20048;-83
2021/07/13 04:42:41;;;;;;;13.80;12.43;;;;;;;19.90;94.74;100235.34;5073388;28;20097;-83
2021/07/13 04:45:11;;;;;;;12.52;11.43;;;;;;;20.04;94.18;100228.41;5056364;28;20135;-83
2021/07/13 04:47:38;;;;;;;14.75;13.32;;;;;;;20.19;93.50;100230.22;5055147;28;20109;-83
2021/07/13 04:50:07;;;;;;;12.90;11.70;;;;;;;20.36;92.91;100231.91;5053203;28;20052;-84
2021/07/13 04:52:34;;;;;;;13.02;10.90;;;;;;;20.46;91.95;100229.59;5053892;28;20139;-83
2021/07/13 04:55:01;;;;;;;11.15;10.00;;;;;;;20.55;91.52;100231.72;5051308;28;20071;-83
2021/07/13 04:57:31;;;;;;;12.68;11.50;;;;;;;20.59;91.28;100229.75;5052606;28;20056;-84
2021/07/13 04:59:58;;;;;;;13.25;11.95;;;;;;;20.61;91.49;100236.72;5052316;28;20052;-83
2021/07/13 05:02:24;;;;;;;12.30;11.10;;;;;;;20.64;91.34;100235.66;5050169;28;20098;-84
2021/07/13 05:04:53;;;;;;;12.05;10.95;;;;;;;20.73;90.92;100228.97;5055219;28;20040;-84
2021/07/13 05:07:23;;;;;;;11.13;10.13;;;;;;;20.81;90.39;100222.25;5074922;28;20048;-83
2021/07/13 05:09:50;;;;;;;12.57;11.40;;;;;;;20.91;89.81;100225.25;5060462;28;20076;-83
2021/07/13 05:12:16;;;;;;;11.02;9.90;;;;;;;21.01;89.41;100219.38;5061504;28;20129;-82
2021/07/13 05:14:43;;;;;;;12.80;11.52;;;;;;;21.05;89.09;100216.44;5056053;28;20399;-83
2021/07/13 05:17:10;;;;;;;10.80;9.88;;;;;;;21.06;88.93;100218.16;5056545;28;20071;-82
2021/07/13 05:19:38;;;;;;;13.40;11.98;;;;;;;21.10;88.42;100213.50;5062128;28;20516;-82
2021/07/13 05:22:09;;;;;;;11.07;10.05;;;;;;;21.11;88.61;100212.56;5074509;28;20126;-84
2021/07/13 05:24:35;;;;;;;11.35;9.95;;;;;;;21.14;88.51;100212.38;5053898;28;20045;-84
2021/07/13 05:27:02;;;;;;;11.30;9.68;;;;;;;21.18;88.52;100213.88;5089259;28;20044;-83
2021/07/13 05:29:32;;;;;;;12.23;11.02;;;;;;;21.20;88.27;100214.66;5097148;28;20093;-83
2021/07/13 05:32:00;;;;;;;10.80;9.90;;;;;;;21.22;88.07;100219.88;5056832;28;20047;-85
2021/07/13 05:34:28;;;;;;;10.80;9.70;;;;;;;21.23;87.96;100225.13;5075150;28;20044;-84
2021/07/13 05:36:54;;;;;;;10.95;9.95;;;;;;;21.25;87.78;100220.56;5069451;28;20047;-84
2021/07/13 05:39:21;;;;;;;13.15;10.77;;;;;;;21.26;87.79;100218.75;5055407;28;20044;-84
2021/07/13 05:41:48;;;;;;;11.73;10.55;;;;;;;21.27;87.56;100223.13;5074308;28;20544;-85
2021/07/13 05:44:15;;;;;;;11.07;10.05;;;;;;;21.28;87.34;100220.38;5053747;28;20491;-82
2021/07/13 05:46:41;;;;;;;11.35;10.38;;;;;;;21.33;87.13;100214.78;5070548;28;20040;-82
2021/07/13 05:49:08;;;;;;;12.18;11.00;;;;;;;21.36;86.67;100219.91;5057266;28;20044;-83
2021/07/13 05:51:34;;;;;;;11.18;9.98;;;;;;;21.41;86.27;100225.81;5054675;28;20398;-85
2021/07/13 05:54:01;;;;;;;10.27;9.20;;;;;;;21.42;86.58;100230.19;5061852;28;20070;-82
2021/07/13 05:56:34;;;;;;;13.13;11.77;;;;;;;21.46;86.27;100226.38;5070297;28;20044;-84
2021/07/13 05:59:01;;;;;;;11.10;10.05;;;;;;;21.50;86.13;100232.38;5060143;28;20047;-85
2021/07/13 06:01:28;;;;;;;12.75;10.73;;;;;;;21.55;85.80;100226.78;5056486;28;20127;-83
2021/07/13 06:03:55;;;;;;;13.27;11.95;;;;;;;21.62;85.48;100222.81;5070117;28;20048;-84
2021/07/13 06:06:21;;;;;;;11.85;10.75;;;;;;;21.68;85.04;100221.56;5056438;28;20052;-84
2021/07/13 06:08:48;;;;;;;10.90;10.02;;;;;;;21.77;84.94;100213.88;5058722;28;20147;-84
2021/07/13 06:11:15;;;;;;;12.20;10.80;;;;;;;21.86;84.14;100212.41;5074621;28;20135;-84
2021/07/13 06:13:43;;;;;;;11.93;10.70;;;;;;;21.96;83.83;100215.34;5073023;28;20042;-84
2021/07/13 06:16:12;;;;;;;9.82;9.05;;;;;;;22.06;83.10;100200.50;5052364;28;20044;-85
2021/07/13 06:18:45;;;;;;;11.25;10.27;;;;;;;22.17;82.67;100199.78;5054941;28;20036;-84
2021/07/13 06:21:11;;;;;;;10.77;9.80;;;;;;;22.23;82.55;100199.41;5071967;28;20043;-84
2021/07/13 06:23:38;;;;;;;10.77;9.77;;;;;;;22.25;82.29;100197.50;5069526;28;20052;-84
2021/07/13 06:26:05;;;;;;;8.73;7.70;;;;;;;22.28;82.19;100193.75;5074059;28;20045;-86
2021/07/13 06:28:34;;;;;;;9.88;8.80;;;;;;;22.30;81.31;100195.34;5073834;28;20089;-85
2021/07/13 06:31:02;;;;;;;9.52;8.68;;;;;;;22.30;80.63;100206.03;5057084;28;20067;-85
2021/07/13 06:33:28;;;;;;;13.60;8.55;;;;;;;22.26;80.50;100209.84;5077540;28;20387;-85
2021/07/13 06:35:55;;;;;;;8.50;7.78;;;;;;;22.26;79.40;100217.00;5052801;28;20831;-84
2021/07/13 06:38:24;;;;;;;8.18;7.55;;;;;;;22.26;78.61;100212.50;5084765;28;20044;-85
2021/07/13 06:40:52;;;;;;;9.20;8.50;;;;;;;22.34;77.68;100219.16;5055831;28;20058;-84
2021/07/13 06:43:36;;;;;;;;;;;;;;;;;;;;;
2021/07/13 06:46:03;;;;;;;10.77;7.88;;;;;;;22.69;76.06;100222.19;5070735;28;20044;-85
2021/07/13 06:48:31;;;;;;;9.35;8.60;;;;;;;22.85;75.11;100215.84;5074173;28;20050;-85
2021/07/13 06:50:58;;;;;;;9.40;8.45;;;;;;;22.96;74.24;100227.50;5073118;28;20044;-85
2021/07/13 06:53:30;;;;;;;7.72;6.93;;;;;;;23.02;73.33;100231.56;5055965;28;20090;-84
2021/07/13 06:55:57;;;;;;;7.95;6.50;;;;;;;23.07;72.79;100228.59;5052185;28;20071;-85
2021/07/13 06:58:23;;;;;;;6.03;5.57;;;;;;;23.12;72.54;100229.97;5059226;28;20051;-84
2021/07/13 07:00:51;;;;;;;10.65;7.00;;;;;;;23.10;71.87;100229.22;5072452;28;20514;-84
2021/07/13 07:03:18;;;;;;;12.57;6.63;;;;;;;23.17;71.82;100228.84;5074072;28;20044;-85
2021/07/13 07:05:44;;;;;;;11.82;7.55;;;;;;;23.26;71.51;100230.88;5070019;28;20039;-84
2021/07/13 07:08:12;;;;;;;16.13;7.60;;;;;;;23.32;70.76;100235.78;5054654;28;20136;-84
2021/07/13 07:10:40;;;;;;;11.20;6.88;;;;;;;23.34;70.54;100244.56;5055475;28;20044;-86
2021/07/13 07:13:06;;;;;;;6.43;5.72;;;;;;;23.36;70.44;100237.31;5070962;28;20044;-83
2021/07/13 07:15:35;;;;;;;14.02;6.40;;;;;;;23.43;69.99;100241.25;5071961;28;20212;-83
2021/07/13 07:18:02;;;;;;;10.65;6.60;;;;;;;23.41;69.90;100237.84;5086343;28;20067;-84
2021/07/13 07:20:34;;;;;;;6.50;6.00;;;;;;;23.49;69.86;100234.59;5068851;28;20047;-84
2021/07/13 07:23:02;;;;;;;14.30;8.18;;;;;;;23.56;68.37;100232.38;5066803;28;20040;-83
2021/07/13 07:25:30;;;;;;;6.82;5.28;;;;;;;23.56;67.82;100235.06;5056220;28;20059;-84
2021/07/13 07:28:02;;;;;;;11.65;7.20;;;;;;;23.58;67.46;100231.31;5036204;28;20040;-84
2021/07/13 07:30:30;;;;;;;9.38;4.95;;;;;;;23.66;67.21;100232.56;5055099;28;20095;-83
2021/07/13 07:32:59;;;;;;;11.63;6.15;;;;;;;23.72;66.53;100241.00;5054947;28;20044;-83
2021/07/13 07:35:28;;;;;;;9.63;5.57;;;;;;;23.75;66.10;100242.59;5052184;28;20036;-84
2021/07/13 07:38:03;;;;;;;13.07;5.63;;;;;;;23.79;65.58;100236.94;5071380;28;20043;-83
2021/07/13 07:40:32;;;;;;;13.57;6.40;;;;;;;23.94;65.62;100243.03;5052230;28;20052;-84
2021/07/13 07:43:08;;;;;;;8.82;5.63;;;;;;;24.21;65.03;100235.78;5051888;28;20414;-85
2021/07/13 07:45:35;;;;;;;7.90;6.45;;;;;;;24.47;63.82;100241.94;5051527;28;20044;-84
2021/07/13 07:48:02;;;;;;;12.45;4.85;;;;;;;24.55;63.09;100236.84;5085316;28;20056;-84
2021/07/13 07:50:35;;;;;;;6.40;4.63;;;;;;;24.67;62.87;100234.25;5054664;28;21361;-84
2021/07/13 07:53:01;;;;;;;5.20;4.53;;;;;;;24.81;62.74;100236.75;5067166;28;20043;-86
2021/07/13 07:55:30;;;;;;;9.57;4.78;;;;;;;24.86;62.09;100242.63;5052355;28;20479;-86
2021/07/13 07:58:03;;;;;;;11.63;5.10;;;;;;;24.89;61.72;100230.81;5083464;28;20052;-84
2021/07/13 08:00:31;;;;;;;8.65;4.40;;;;;;;25.13;60.96;100244.13;5068855;28;20036;-84
2021/07/13 08:02:59;;;;;;;10.45;4.55;;;;;;;25.31;60.19;100238.34;5083617;28;20044;-86
2021/07/13 08:05:26;;;;;;;4.90;3.53;;;;;;;25.49;59.32;100236.94;5053743;28;20396;-83
2021/07/13 08:07:53;;;;;;;7.32;4.35;;;;;;;25.66;58.23;100226.72;5068303;28;20514;-84
2021/07/13 08:10:22;;;;;;;4.28;3.95;;;;;;;25.76;57.21;100227.66;5052890;28;20044;-84
2021/07/13 08:12:49;;;;;;;4.70;3.58;;;;;;;25.84;57.35;100221.69;5068321;28;20079;-85
2021/07/13 08:15:16;;;;;;;5.78;3.58;;;;;;;25.97;56.51;100225.13;5051025;28;20082;-84
2021/07/13 08:17:46;;;;;;;5.90;4.03;;;;;;;26.15;56.31;100217.44;5050520;28;20120;-85
2021/07/13 08:20:14;;;;;;;5.18;3.60;;;;;;;26.72;54.80;100217.25;5069196;28;20059;-83
2021/07/13 08:22:45;;;;;;;6.28;3.67;;;;;;;27.29;52.91;100214.25;5053429;28;20131;-85
2021/07/13 08:25:13;;;;;;;8.45;3.60;;;;;;;27.62;52.27;100207.78;5067712;28;20054;-84
2021/07/13 08:27:41;;;;;;;5.43;3.65;;;;;;;27.78;51.23;100214.50;5065578;28;20055;-85
2021/07/13 08:30:09;;;;;;;8.05;4.05;;;;;;;27.75;51.67;100209.41;5071479;28;20501;-83
2021/07/13 08:32:45;;;;;;;;;;;;;;;;;;;;;
2021/07/13 08:35:22;;;;;;;5.80;3.92;;;;;;;29.39;47.26;100200.72;5051839;28;20051;-87
2021/07/13 08:37:50;;;;;;;5.30;3.85;;;;;;;29.81;46.55;100194.84;5053113;28;20071;-84
2021/07/13 08:40:18;;;;;;;6.60;4.20;;;;;;;30.22;45.43;100199.91;5053861;28;20090;-85
2021/07/13 08:43:06;;;;;;;;;;;;;;;;;;;;;
2021/07/13 08:45:33;;;;;;;7.35;4.15;;;;;;;31.45;42.09;100204.63;5088049;28;20428;-83
2021/07/13 08:48:02;;;;;;;14.75;4.13;;;;;;;31.05;42.39;100206.06;5069776;28;20131;-83
2021/07/13 08:50:28;;;;;;;9.48;3.78;;;;;;;30.56;43.87;100201.06;5073040;28;20051;-86
2021/07/13 08:52:55;;;;;;;5.45;3.35;;;;;;;30.17;43.41;100200.34;5067625;28;20907;-83
2021/07/13 08:55:24;;;;;;;12.05;3.45;;;;;;;30.11;44.23;100195.53;5055319;28;20043;-86
2021/07/13 08:57:53;;;;;;;8.25;3.45;;;;;;;30.20;44.23;100197.31;5054762;28;20056;-84
2021/07/13 09:00:22;;;;;;;6.57;4.18;;;;;;;30.48;43.55;100199.13;5054626;28;20036;-85
2021/07/13 09:03:13;;;;;;;7.78;4.10;;;;;;;30.71;42.45;100202.22;5088306;28;20047;-85
2021/07/13 09:05:58;;;;;;;7.57;3.05;;;;;;;30.98;42.04;100201.25;5070703;28;20040;-84
2021/07/13 09:08:30;;;;;;;10.68;3.55;;;;;;;31.64;40.88;100203.53;5069890;28;20044;-83
2021/07/13 09:11:03;;;;;;;;;;;;;;;32.32;38.88;100205.31;5090163;28;20040;-84
2021/07/13 09:13:46;;;;;;;;;;;;;;;;;;;;;
2021/07/13 09:16:20;;;;;;;7.72;3.50;;;;;;;33.60;36.35;100205.75;5053505;28;20119;-83
2021/07/13 09:18:55;;;;;;;4.72;3.17;;;;;;;33.85;36.23;100216.53;5054949;28;20126;-86
2021/07/13 09:21:32;;;;;;;9.82;3.30;;;;;;;34.49;34.70;100218.22;5050860;28;20048;-83
2021/07/13 09:24:21;;;;;;;4.65;2.28;;;;;;;35.02;34.03;100219.16;5053248;28;20127;-84
2021/07/13 09:27:04;;;;;;;2.17;1.95;;;;;;;35.47;32.53;100213.75;5054845;28;20040;-85
2021/07/13 09:29:44;;;;;;;2.00;1.90;;;;;;;35.76;31.57;100218.34;5058142;28;20131;-84
2021/07/13 09:32:31;;;;;;;6.72;2.30;;;;;;;35.71;31.40;100220.78;5067555;28;20048;-83
2021/07/13 09:35:01;;;;;;;2.20;2.05;;;;;;;36.14;31.36;100224.66;5085882;28;20044;-85
2021/07/13 09:37:33;;;;;;;2.83;2.00;;;;;;;36.42;30.65;100219.34;5052694;28;20051;-84
2021/07/13 09:40:11;;;;;;;3.65;2.10;;;;;;;36.71;29.67;100215.66;5070966;28;20383;-86
2021/07/13 09:42:55;;;;;;;3.60;1.98;;;;;;;36.85;29.22;100207.59;5071396;28;20059;-84
2021/07/13 09:45:33;;;;;;;2.33;2.20;;;;;;;36.46;30.06;100200.72;5069010;28;20505;-85
2021/07/13 09:48:13;;;;;;;3.35;2.03;;;;;;;35.31;31.01;100205.78;5071872;28;20040;-83
2021/07/13 09:50:43;;;;;;;2.45;2.22;;;;;;;33.59;33.58;100204.88;5070660;28;20047;-83
2021/07/13 09:53:31;;;;;;;3.10;2.25;;;;;;;32.48;35.74;100209.06;5071121;28;20068;-84
2021/07/13 09:56:02;;;;;;;3.40;2.97;;;;;;;31.83;37.12;100208.69;5035513;28;20056;-83
2021/07/13 09:58:29;;;;;;;2.40;2.20;;;;;;;31.14;38.10;100203.25;5086782;28;20147;-85
2021/07/13 10:00:58;;;;;;;2.72;2.53;;;;;;;30.62;38.56;100205.84;5051672;28;20062;-84
2021/07/13 10:03:27;;;;;;;2.80;2.17;;;;;;;30.20;39.47;100197.31;5054113;28;20039;-86
2021/07/13 10:05:56;;;;;;;3.03;2.55;;;;;;;29.88;40.10;100202.38;5055724;28;20053;-85
2021/07/13 10:08:23;;;;;;;2.85;2.45;;;;;;;29.81;40.44;100194.84;5055182;28;20048;-83
2021/07/13 10:10:51;;;;;;;2.45;2.35;;;;;;;29.82;40.74;100198.41;5069907;28;20478;-85
2021/07/13 10:13:23;;;;;;;3.40;3.10;;;;;;;29.69;40.48;100201.44;5050557;28;20529;-84
2021/07/13 10:15:52;;;;;;;3.97;3.57;;;;;;;29.71;41.05;100199.44;5069166;28;20048;-85
2021/07/13 10:18:23;;;;;;;3.30;2.97;;;;;;;29.95;40.38;100204.31;5069632;28;20099;-84
2021/07/13 10:20:54;;;;;;;2.83;2.67;;;;;;;30.79;38.28;100204.13;5052155;28;20086;-84
2021/07/13 10:23:22;;;;;;;4.10;3.63;;;;;;;31.32;37.77;100208.59;5069412;28;21307;-85
2021/07/13 10:25:55;;;;;;;2.80;2.58;;;;;;;31.71;36.87;100196.47;5068465;28;20048;-84
2021/07/13 10:28:32;;;;;;;3.38;3.08;;;;;;;32.10;35.90;100187.81;5075162;28;20054;-84
2021/07/13 10:31:44;;;;;;;3.63;2.88;;;;;;;31.71;36.08;100206.44;5060172;28;20052;-86
2021/07/13 10:34:13;;;;;;;2.85;2.65;;;;;;;30.98;37.67;100197.72;5089176;22;20509;-88
2021/07/13 10:36:44;;;;;;;4.28;3.97;;;;;;;30.55;38.86;100196.66;5010639;28;20052;-85
2021/07/13 10:39:35;;;;;;;4.65;3.20;;;;;;;30.22;39.13;100193.63;4994274;28;20046;-86
2021/07/13 10:42:03;;;;;;;2.90;2.70;;;;;;;30.36;38.77;100193.97;5021145;28;20042;-85
2021/07/13 10:44:52;;;;;;;4.18;3.22;;;;;;;30.94;37.32;100197.16;4993256;28;20105;-86
2021/07/13 10:47:31;;;;;;;3.13;2.83;;;;;;;32.42;34.67;100183.47;5006395;28;20070;-87
2021/07/13 10:50:18;;;;;;;4.45;3.35;;;;;;;33.78;32.40;100194.63;5022982;28;20408;-87
2021/07/13 10:53:05;;;;;;;3.15;3.05;;;;;;;34.43;32.28;100179.00;5023153;28;20050;-86
2021/07/13 10:55:31;;;;;;;4.72;4.38;;;;;;;35.11;31.03;100192.72;5008345;28;20046;-86
2021/07/13 10:58:13;;;;;;;3.38;3.28;;;;;;;35.15;30.40;100185.00;5008144;28;20046;-86
2021/07/13 11:00:48;;;;;;;3.60;3.30;;;;;;;35.10;31.32;100180.13;5006633;28;20041;-85
2021/07/13 11:03:30;;;;;;;3.20;3.10;;;;;;;34.21;30.68;100197.81;5005629;28;20081;-86
2021/07/13 11:06:11;;;;;;;3.50;3.30;;;;;;;33.25;32.89;100197.84;5023027;28;20496;-86
2021/07/13 11:08:40;;;;;;;4.00;3.60;;;;;;;32.68;34.26;100201.44;5009581;28;20614;-86
2021/07/13 11:11:16;;;;;;;4.70;3.65;;;;;;;32.39;34.66;100200.06;5025096;28;20576;-87
2021/07/13 11:13:49;;;;;;;3.65;3.45;;;;;;;32.45;35.26;100199.41;5021722;28;20050;-86
2021/07/13 11:16:22;;;;;;;4.22;3.92;;;;;;;32.03;35.38;100199.47;5005643;28;20052;-85
2021/07/13 11:18:52;;;;;;;4.38;4.03;;;;;;;31.43;36.56;100210.19;4993826;28;20050;-87
2021/07/13 11:21:22;;;;;;;5.25;4.05;;;;;;;31.12;36.92;100210.69;5007121;28;20132;-86
2021/07/13 11:23:53;;;;;;;5.15;4.80;;;;;;;30.82;37.44;100212.78;5024093;28;20061;-85
2021/07/13 11:26:25;;;;;;;4.22;3.92;;;;;;;30.68;37.88;100205.25;5024444;28;20076;-86
2021/07/13 11:28:58;;;;;;;5.07;4.72;;;;;;;30.88;37.60;100205.91;5005235;28;20164;-86
2021/07/13 11:31:32;;;;;;;4.97;4.57;;;;;;;30.96;37.49;100215.94;4988953;28;20052;-86
2021/07/13 11:34:09;;;;;;;5.30;4.97;;;;;;;30.92;37.12;100201.03;5004302;28;20050;-85
2021/07/13 11:36:50;;;;;;;4.55;4.25;;;;;;;31.42;36.40;100205.78;5019389;28;20435;-85
2021/07/13 11:39:32;;;;;;;5.28;4.80;;;;;;;32.03;35.15;100199.47;5000041;28;20109;-86
2021/07/13 11:42:19;;;;;;;;;;;;;;;;;;;;;